Time,TemperatureF,DewpointF,PressureIn,WindDirection,WindDirectionDegrees,WindSpeedMPH,WindSpeedGustMPH,Humidity,HourlyPrecipIn,Conditions,Clouds,dailyrainin,SoftwareType,DateUTC
2013-03-06 00:00:00,61.7,57.2,29.99,SW,225,1.0,2.0,85,0.00,,,0.00,meteohub,2013-03-06 05:00:00,
2013-03-06 00:01:00,61.7,57.4,29.99,SSW,203,2.0,2.0,86,0.00,,,0.00,meteohub,2013-03-06 05:01:00,
2013-03-06 00:02:00,61.7,57.4,29.98,SW,225,2.0,2.0,86,0.00,,,0.00,meteohub,2013-03-06 05:02:00,
2013-03-06 00:07:00,61.7,57.4,29.98,SW,225,2.0,2.0,86,0.00,,,0.00,meteohub,2013-03-06 05:07:00,
2013-03-06 00:12:00,61.9,57.6,29.98,SW,225,1.0,2.0,86,0.00,,,0.00,meteohub,2013-03-06 05:12:00,
2013-03-06 00:17:00,61.5,57.4,29.97,West,270,2.0,2.0,86,0.00,,,0.00,meteohub,2013-03-06 05:17:00,
2013-03-06 00:22:00,61.5,57.4,29.97,SW,225,2.0,2.0,86,0.00,,,0.00,meteohub,2013-03-06 05:22:00,
2013-03-06 00:27:00,61.3,57.4,29.98,SW,225,0.0,2.0,87,0.00,,,0.00,meteohub,2013-03-06 05:27:00,
2013-03-06 00:32:00,61.2,57.2,29.98,SW,225,1.0,2.0,87,0.00,,,0.00,meteohub,2013-03-06 05:32:00,
2013-03-06 00:37:00,61.0,57.4,29.98,SW,225,1.0,2.0,88,0.00,,,0.00,meteohub,2013-03-06 05:37:00,
2013-03-06 00:42:00,60.8,57.2,29.98,SW,225,0.0,2.0,88,0.00,,,0.00,meteohub,2013-03-06 05:42:00,
2013-03-06 00:47:00,60.6,57.0,29.98,West,270,1.0,2.0,88,0.00,,,0.00,meteohub,2013-03-06 05:47:00,
2013-03-06 00:52:00,60.3,57.0,29.98,West,270,1.0,2.0,89,0.00,,,0.00,meteohub,2013-03-06 05:52:00,
2013-03-06 00:57:00,59.9,56.7,29.98,West,270,0.0,1.0,89,0.00,,,0.00,meteohub,2013-03-06 05:57:00,
2013-03-06 01:02:00,59.5,56.7,29.98,West,270,1.0,1.0,90,0.00,,,0.00,meteohub,2013-03-06 06:02:00,
2013-03-06 01:07:00,59.4,56.7,29.97,SW,225,1.0,1.0,91,0.00,,,0.00,meteohub,2013-03-06 06:07:00,
2013-03-06 01:12:00,59.2,56.8,29.98,SW,225,0.0,1.0,92,0.00,,,0.00,meteohub,2013-03-06 06:12:00,
2013-03-06 01:17:00,59.2,57.2,29.97,SW,225,1.0,1.0,93,0.00,,,0.00,meteohub,2013-03-06 06:17:00,
2013-03-06 01:22:00,59.2,57.4,29.97,SW,225,1.0,1.0,94,0.00,,,0.00,meteohub,2013-03-06 06:22:00,
2013-03-06 01:27:00,59.4,57.6,29.97,SW,225,2.0,2.0,94,0.00,,,0.00,meteohub,2013-03-06 06:27:00,
2013-03-06 01:32:00,59.4,57.6,29.97,SW,225,1.0,2.0,94,0.00,,,0.00,meteohub,2013-03-06 06:32:00,
2013-03-06 01:37:00,59.0,57.2,29.97,SW,225,1.0,2.0,94,0.00,,,0.00,meteohub,2013-03-06 06:37:00,
2013-03-06 01:42:00,59.0,57.2,29.97,West,270,1.0,2.0,94,0.00,,,0.00,meteohub,2013-03-06 06:42:00,
2013-03-06 01:47:00,58.6,56.8,29.96,SW,225,1.0,1.0,94,0.00,,,0.00,meteohub,2013-03-06 06:47:00,
2013-03-06 01:52:00,58.5,57.0,29.96,South,180,0.0,1.0,95,0.00,,,0.00,meteohub,2013-03-06 06:52:00,
2013-03-06 01:57:00,58.3,56.8,29.96,South,180,0.0,1.0,95,0.00,,,0.00,meteohub,2013-03-06 06:57:00,
2013-03-06 02:03:00,58.1,57.0,29.96,South,180,0.0,1.0,96,0.00,,,0.00,meteohub,2013-03-06 07:03:00,
2013-03-06 02:08:00,58.3,57.2,29.96,SW,225,0.0,1.0,96,0.00,,,0.00,meteohub,2013-03-06 07:08:00,
2013-03-06 02:13:00,58.1,57.2,29.95,SW,225,0.0,2.0,97,0.00,,,0.00,meteohub,2013-03-06 07:13:00,
2013-03-06 02:18:00,58.1,57.2,29.96,SW,225,2.0,2.0,97,0.00,,,0.00,meteohub,2013-03-06 07:18:00,
2013-03-06 02:23:00,58.1,57.6,29.94,SW,225,0.0,2.0,98,0.00,,,0.00,meteohub,2013-03-06 07:23:00,
2013-03-06 02:28:00,57.9,57.4,29.94,SW,225,1.0,2.0,98,0.00,,,0.00,meteohub,2013-03-06 07:28:00,
2013-03-06 02:33:00,57.9,57.4,29.94,SW,225,1.0,2.0,98,0.00,,,0.00,meteohub,2013-03-06 07:33:00,
2013-03-06 02:38:00,58.1,57.7,29.94,SW,225,1.0,2.0,99,0.00,,,0.00,meteohub,2013-03-06 07:38:00,
2013-03-06 02:43:00,58.1,57.7,29.94,SW,225,1.0,2.0,99,0.00,,,0.00,meteohub,2013-03-06 07:43:00,
2013-03-06 02:48:00,58.1,57.7,29.94,SW,225,1.0,2.0,99,0.00,,,0.00,meteohub,2013-03-06 07:48:00,
2013-03-06 02:54:00,58.3,57.9,29.93,SW,225,1.0,2.0,99,0.00,,,0.00,meteohub,2013-03-06 07:54:00,
2013-03-06 02:59:00,58.3,57.9,29.93,SW,225,1.0,2.0,99,0.00,,,0.00,meteohub,2013-03-06 07:59:00,
2013-03-06 03:04:00,58.1,57.7,29.92,South,180,1.0,2.0,99,0.00,,,0.00,meteohub,2013-03-06 08:04:00,
2013-03-06 03:09:00,57.9,57.6,29.91,South,180,1.0,2.0,99,0.00,,,0.00,meteohub,2013-03-06 08:09:00,
2013-03-06 03:14:00,58.1,57.7,29.91,SW,225,1.0,2.0,99,0.00,,,0.00,meteohub,2013-03-06 08:14:00,
2013-03-06 03:19:00,58.3,57.9,29.92,SW,225,2.0,2.0,99,0.00,,,0.00,meteohub,2013-03-06 08:19:00,
2013-03-06 03:24:00,58.3,57.9,29.92,South,180,1.0,2.0,99,0.00,,,0.00,meteohub,2013-03-06 08:24:00,
2013-03-06 03:29:00,58.1,57.7,29.91,SW,225,1.0,2.0,99,0.00,,,0.00,meteohub,2013-03-06 08:29:00,
2013-03-06 03:34:00,57.9,57.6,29.92,SW,225,1.0,2.0,99,0.00,,,0.00,meteohub,2013-03-06 08:34:00,
2013-03-06 03:39:00,57.6,57.2,29.91,West,270,0.0,2.0,99,0.00,,,0.00,meteohub,2013-03-06 08:39:00,
2013-03-06 03:45:00,57.2,56.8,29.91,South,180,0.0,1.0,99,0.00,,,0.00,meteohub,2013-03-06 08:45:00,
2013-03-06 03:50:00,57.2,56.8,29.92,SW,225,0.0,2.0,99,0.00,,,0.00,meteohub,2013-03-06 08:50:00,
2013-03-06 03:55:00,57.2,56.8,29.92,West,270,1.0,2.0,99,0.00,,,0.00,meteohub,2013-03-06 08:55:00,
2013-03-06 04:00:00,56.8,56.5,29.92,West,270,0.0,2.0,99,0.00,,,0.00,meteohub,2013-03-06 09:00:00,
2013-03-06 04:05:00,56.5,56.1,29.92,West,270,0.0,1.0,99,0.00,,,0.00,meteohub,2013-03-06 09:05:00,
2013-03-06 04:10:00,56.3,55.9,29.91,South,180,1.0,1.0,99,0.00,,,0.00,meteohub,2013-03-06 09:10:00,
2013-03-06 04:15:00,56.3,55.9,29.92,SW,225,1.0,1.0,99,0.00,,,0.00,meteohub,2013-03-06 09:15:00,
2013-03-06 04:20:00,56.5,56.1,29.92,SW,225,1.0,1.0,99,0.00,,,0.00,meteohub,2013-03-06 09:20:00,
2013-03-06 04:25:00,56.7,56.3,29.92,SW,225,0.0,1.0,99,0.00,,,0.00,meteohub,2013-03-06 09:25:00,
2013-03-06 04:30:00,56.5,56.1,29.92,SW,225,0.0,1.0,99,0.00,,,0.00,meteohub,2013-03-06 09:30:00,
2013-03-06 04:35:00,56.5,56.1,29.92,SW,225,1.0,1.0,99,0.00,,,0.00,meteohub,2013-03-06 09:35:00,
2013-03-06 04:41:00,56.5,56.1,29.92,SW,225,1.0,1.0,99,0.00,,,0.00,meteohub,2013-03-06 09:41:00,
2013-03-06 04:46:00,56.7,56.3,29.92,SW,225,0.0,1.0,99,0.00,,,0.00,meteohub,2013-03-06 09:46:00,
2013-03-06 04:51:00,56.3,55.9,29.93,West,270,0.0,1.0,99,0.00,,,0.00,meteohub,2013-03-06 09:51:00,
2013-03-06 04:56:00,56.1,55.8,29.93,West,270,0.0,1.0,99,0.00,,,0.00,meteohub,2013-03-06 09:56:00,
2013-03-06 05:01:00,55.8,55.4,29.93,West,270,0.0,1.0,99,0.00,,,0.00,meteohub,2013-03-06 10:01:00,
2013-03-06 05:06:00,55.6,55.2,29.93,West,270,0.0,0.0,99,0.00,,,0.00,meteohub,2013-03-06 10:06:00,
2013-03-06 05:11:00,55.4,55.0,29.93,SW,225,1.0,0.0,99,0.00,,,0.00,meteohub,2013-03-06 10:11:00,
2013-03-06 05:16:00,55.6,55.2,29.93,SW,225,0.0,1.0,99,0.00,,,0.00,meteohub,2013-03-06 10:16:00,
2013-03-06 05:22:00,55.4,55.0,29.94,SW,225,0.0,1.0,99,0.00,,,0.00,meteohub,2013-03-06 10:22:00,
2013-03-06 05:27:00,55.2,54.9,29.94,SW,225,0.0,1.0,99,0.00,,,0.00,meteohub,2013-03-06 10:27:00,
2013-03-06 05:32:00,55.2,54.9,29.94,SW,225,0.0,1.0,99,0.00,,,0.00,meteohub,2013-03-06 10:32:00,
2013-03-06 05:37:00,55.2,54.9,29.94,SW,225,0.0,1.0,99,0.00,,,0.00,meteohub,2013-03-06 10:37:00,
2013-03-06 05:42:00,55.2,54.9,29.95,SW,225,0.0,1.0,99,0.00,,,0.00,meteohub,2013-03-06 10:42:00,
2013-03-06 05:47:00,55.0,54.7,29.94,SW,225,0.0,1.0,99,0.00,,,0.00,meteohub,2013-03-06 10:47:00,
2013-03-06 05:52:00,55.0,54.7,29.94,West,270,0.0,1.0,99,0.00,,,0.00,meteohub,2013-03-06 10:52:00,
2013-03-06 05:57:00,55.4,55.0,29.95,SW,225,1.0,2.0,99,0.00,,,0.00,meteohub,2013-03-06 10:57:00,
2013-03-06 06:02:00,55.6,55.2,29.95,SW,225,1.0,2.0,99,0.00,,,0.00,meteohub,2013-03-06 11:02:00,
2013-03-06 06:07:00,55.9,55.6,29.95,SW,225,1.0,2.0,99,0.00,,,0.00,meteohub,2013-03-06 11:07:00,
2013-03-06 06:12:00,56.1,55.8,29.95,SW,225,1.0,2.0,99,0.00,,,0.00,meteohub,2013-03-06 11:12:00,
2013-03-06 06:17:00,56.3,55.9,29.95,SW,225,2.0,2.0,99,0.00,,,0.00,meteohub,2013-03-06 11:17:00,
2013-03-06 06:22:00,56.5,56.1,29.95,SW,225,2.0,4.0,99,0.00,,,0.00,meteohub,2013-03-06 11:22:00,
2013-03-06 06:27:00,56.7,56.3,29.95,SW,225,1.0,4.0,99,0.00,,,0.00,meteohub,2013-03-06 11:27:00,
2013-03-06 06:32:00,56.7,56.3,29.95,SW,225,1.0,4.0,99,0.00,,,0.00,meteohub,2013-03-06 11:32:00,
2013-03-06 06:38:00,56.8,56.5,29.96,SW,225,1.0,2.0,99,0.00,,,0.00,meteohub,2013-03-06 11:38:00,
2013-03-06 06:43:00,57.0,56.7,29.95,South,180,2.0,2.0,99,0.00,,,0.00,meteohub,2013-03-06 11:43:00,
2013-03-06 06:48:00,57.4,57.0,29.96,South,180,2.0,2.0,99,0.00,,,0.00,meteohub,2013-03-06 11:48:00,
2013-03-06 06:53:00,57.7,57.4,29.95,South,180,2.0,4.0,99,0.00,,,0.00,meteohub,2013-03-06 11:53:00,
2013-03-06 06:58:00,58.5,58.1,29.96,South,180,2.0,4.0,99,0.00,,,0.00,meteohub,2013-03-06 11:58:00,
2013-03-06 07:04:00,59.2,58.8,29.96,South,180,3.0,3.0,99,0.00,,,0.00,meteohub,2013-03-06 12:04:00,
2013-03-06 07:09:00,60.1,59.7,29.95,SW,225,2.0,3.0,99,0.00,,,0.00,meteohub,2013-03-06 12:09:00,
2013-03-06 07:14:00,61.0,60.6,29.96,SW,225,2.0,5.0,99,0.00,,,0.00,meteohub,2013-03-06 12:14:00,
2013-03-06 07:19:00,61.9,61.5,29.96,SW,225,3.0,5.0,99,0.00,,,0.00,meteohub,2013-03-06 12:19:00,
2013-03-06 07:24:00,62.8,61.9,29.96,South,180,4.0,4.0,97,0.00,,,0.00,meteohub,2013-03-06 12:24:00,
2013-03-06 07:29:00,63.5,62.1,29.96,SW,225,4.0,4.0,95,0.00,,,0.00,meteohub,2013-03-06 12:29:00,
2013-03-06 07:34:00,64.2,62.2,29.96,SW,225,3.0,4.0,93,0.00,,,0.00,meteohub,2013-03-06 12:34:00,
2013-03-06 07:40:00,64.8,62.1,29.96,SW,225,4.0,4.0,91,0.00,,,0.00,meteohub,2013-03-06 12:40:00,
2013-03-06 07:45:00,65.3,62.2,29.96,SW,225,4.0,5.0,90,0.00,,,0.00,meteohub,2013-03-06 12:45:00,
2013-03-06 07:50:00,65.8,62.4,29.96,South,180,5.0,5.0,89,0.00,,,0.00,meteohub,2013-03-06 12:50:00,
2013-03-06 07:55:00,66.2,62.6,29.97,South,180,5.0,7.0,88,0.00,,,0.00,meteohub,2013-03-06 12:55:00,
2013-03-06 08:00:00,66.7,62.4,29.96,SW,225,6.0,7.0,86,0.00,,,0.00,meteohub,2013-03-06 13:00:00,
2013-03-06 08:05:00,67.5,63.1,29.96,SW,225,3.0,7.0,86,0.00,,,0.00,meteohub,2013-03-06 13:05:00,
2013-03-06 08:10:00,68.2,63.5,29.96,NW,315,4.0,6.0,85,0.00,,,0.00,meteohub,2013-03-06 13:10:00,
2013-03-06 08:15:00,68.5,63.1,29.96,SW,225,2.0,7.0,83,0.00,,,0.00,meteohub,2013-03-06 13:15:00,
2013-03-06 08:20:00,69.1,63.3,29.96,SSW,203,4.0,8.0,82,0.00,,,0.00,meteohub,2013-03-06 13:20:00,
2013-03-06 08:26:00,69.3,63.1,29.96,South,180,5.0,9.0,81,0.00,,,0.00,meteohub,2013-03-06 13:26:00,
2013-03-06 08:31:00,69.6,63.1,29.96,South,180,6.0,9.0,80,0.00,,,0.00,meteohub,2013-03-06 13:31:00,
2013-03-06 08:36:00,70.2,63.7,29.96,SW,225,3.0,9.0,80,0.00,,,0.00,meteohub,2013-03-06 13:36:00,
2013-03-06 08:41:00,70.3,63.5,29.97,SW,225,7.0,10.0,79,0.00,,,0.00,meteohub,2013-03-06 13:41:00,
2013-03-06 08:46:00,70.7,63.5,29.97,SSW,203,7.0,10.0,78,0.00,,,0.00,meteohub,2013-03-06 13:46:00,
2013-03-06 08:51:00,70.3,62.8,29.96,West,270,8.0,12.0,77,0.00,,,0.00,meteohub,2013-03-06 13:51:00,
2013-03-06 08:56:00,71.1,63.5,29.96,SW,225,3.0,12.0,77,0.00,,,0.00,meteohub,2013-03-06 13:56:00,
2013-03-06 09:02:00,71.4,63.1,29.96,South,180,11.0,12.0,75,0.00,,,0.00,meteohub,2013-03-06 14:02:00,
2013-03-06 09:07:00,71.2,63.0,29.96,SW,225,5.0,11.0,75,0.00,,,0.00,meteohub,2013-03-06 14:07:00,
2013-03-06 09:12:00,71.6,63.0,29.96,NW,315,13.0,13.0,74,0.00,,,0.00,meteohub,2013-03-06 14:12:00,
2013-03-06 09:17:00,71.6,63.0,29.96,South,180,6.0,13.0,74,0.00,,,0.00,meteohub,2013-03-06 14:17:00,
2013-03-06 09:22:00,71.8,63.0,29.96,South,180,11.0,16.0,74,0.00,,,0.00,meteohub,2013-03-06 14:22:00,
2013-03-06 09:27:00,72.1,63.0,29.96,SW,225,8.0,16.0,73,0.00,,,0.00,meteohub,2013-03-06 14:27:00,
2013-03-06 09:32:00,72.5,63.3,29.96,West,270,6.0,16.0,73,0.00,,,0.00,meteohub,2013-03-06 14:32:00,
2013-03-06 09:37:00,73.0,62.6,29.96,SW,225,15.0,15.0,70,0.00,,,0.00,meteohub,2013-03-06 14:37:00,
2013-03-06 09:42:00,72.9,62.4,29.96,West,270,7.0,15.0,70,0.00,,,0.00,meteohub,2013-03-06 14:42:00,
2013-03-06 09:47:00,73.0,62.6,29.96,SW,225,7.0,15.0,70,0.00,,,0.00,meteohub,2013-03-06 14:47:00,
2013-03-06 09:52:00,73.4,62.6,29.96,WSW,248,9.0,15.0,69,0.00,,,0.00,meteohub,2013-03-06 14:52:00,
2013-03-06 09:57:00,73.8,62.1,29.96,SW,225,9.0,13.0,67,0.00,,,0.00,meteohub,2013-03-06 14:57:00,
2013-03-06 10:02:00,73.9,61.9,29.96,SW,225,11.0,13.0,66,0.00,,,0.00,meteohub,2013-03-06 15:02:00,
2013-03-06 10:07:00,74.7,62.6,29.96,SW,225,8.0,13.0,66,0.00,,,0.00,meteohub,2013-03-06 15:07:00,
2013-03-06 10:13:00,75.2,62.2,29.96,SE,135,10.0,14.0,64,0.00,,,0.00,meteohub,2013-03-06 15:13:00,
2013-03-06 10:18:00,75.2,62.6,29.96,SW,225,9.0,14.0,65,0.00,,,0.00,meteohub,2013-03-06 15:18:00,
2013-03-06 10:23:00,75.9,62.8,29.96,South,180,10.0,15.0,64,0.00,,,0.00,meteohub,2013-03-06 15:23:00,
2013-03-06 10:28:00,76.5,63.0,29.96,NW,315,8.0,15.0,63,0.00,,,0.00,meteohub,2013-03-06 15:28:00,
2013-03-06 10:33:00,77.2,62.6,29.95,West,270,7.0,15.0,61,0.00,,,0.00,meteohub,2013-03-06 15:33:00,
2013-03-06 10:38:00,77.7,63.1,29.96,West,270,9.0,10.0,61,0.00,,,0.00,meteohub,2013-03-06 15:38:00,
2013-03-06 10:43:00,77.2,63.1,29.96,East,90,6.0,11.0,62,0.00,,,0.00,meteohub,2013-03-06 15:43:00,
2013-03-06 10:48:00,76.5,63.0,29.96,SW,225,6.0,14.0,63,0.00,,,0.00,meteohub,2013-03-06 15:48:00,
2013-03-06 10:54:00,75.9,62.8,29.96,NNW,338,8.0,14.0,64,0.00,,,0.00,meteohub,2013-03-06 15:54:00,
2013-03-06 10:59:00,76.3,63.7,29.96,SW,225,8.0,14.0,65,0.00,,,0.00,meteohub,2013-03-06 15:59:00,
2013-03-06 11:04:00,76.5,63.3,29.96,SW,225,10.0,12.0,64,0.00,,,0.00,meteohub,2013-03-06 16:04:00,
2013-03-06 11:09:00,76.1,63.5,29.96,SW,225,8.0,11.0,65,0.00,,,0.00,meteohub,2013-03-06 16:09:00,
2013-03-06 11:14:00,77.0,63.5,29.96,SW,225,12.0,12.0,63,0.00,,,0.00,meteohub,2013-03-06 16:14:00,
2013-03-06 11:19:00,76.8,63.3,29.96,West,270,5.0,11.0,63,0.00,,,0.00,meteohub,2013-03-06 16:19:00,
2013-03-06 11:24:00,76.6,63.5,29.96,NW,315,9.0,14.0,64,0.00,,,0.00,meteohub,2013-03-06 16:24:00,
2013-03-06 11:29:00,76.6,63.5,29.96,SW,225,11.0,14.0,64,0.00,,,0.00,meteohub,2013-03-06 16:29:00,
2013-03-06 11:34:00,76.5,63.9,29.95,West,270,7.0,14.0,65,0.00,,,0.00,meteohub,2013-03-06 16:34:00,
2013-03-06 11:39:00,77.0,63.9,29.95,West,270,8.0,11.0,64,0.00,,,0.00,meteohub,2013-03-06 16:39:00,
2013-03-06 11:45:00,77.5,63.9,29.95,WSW,248,8.0,12.0,63,0.00,,,0.00,meteohub,2013-03-06 16:45:00,
2013-03-06 11:50:00,77.9,64.2,29.94,NW,315,8.0,12.0,63,0.00,,,0.00,meteohub,2013-03-06 16:50:00,
2013-03-06 11:55:00,79.0,63.9,29.94,WNW,293,13.0,13.0,60,0.00,,,0.00,meteohub,2013-03-06 16:55:00,
2013-03-06 12:00:00,78.3,63.7,29.94,SW,225,8.0,13.0,61,0.00,,,0.00,meteohub,2013-03-06 17:00:00,
2013-03-06 12:05:00,77.5,63.9,29.94,West,270,9.0,13.0,63,0.00,,,0.00,meteohub,2013-03-06 17:05:00,
2013-03-06 12:10:00,76.8,63.3,29.94,South,180,13.0,13.0,63,0.00,,,0.00,meteohub,2013-03-06 17:10:00,
2013-03-06 12:15:00,76.5,63.3,29.94,West,270,11.0,13.0,64,0.00,,,0.00,meteohub,2013-03-06 17:15:00,
2013-03-06 12:20:00,76.3,63.7,29.94,West,270,2.0,13.0,65,0.00,,,0.00,meteohub,2013-03-06 17:20:00,
2013-03-06 12:25:00,75.9,63.7,29.94,South,180,4.0,13.0,66,0.00,,,0.00,meteohub,2013-03-06 17:25:00,
2013-03-06 12:31:00,75.0,64.9,29.94,WNW,293,7.0,11.0,71,0.00,,,0.00,meteohub,2013-03-06 17:31:00,
2013-03-06 12:36:00,73.6,64.8,29.94,NW,315,5.0,14.0,74,0.00,,,0.00,meteohub,2013-03-06 17:36:00,
2013-03-06 12:41:00,72.7,65.1,29.93,NW,315,4.0,14.0,77,0.00,,,0.00,meteohub,2013-03-06 17:41:00,
2013-03-06 12:46:00,72.7,65.5,29.94,NW,315,4.0,14.0,78,0.00,,,0.00,meteohub,2013-03-06 17:46:00,
2013-03-06 12:51:00,73.2,65.7,29.93,NW,315,8.0,11.0,77,0.00,,,0.00,meteohub,2013-03-06 17:51:00,
2013-03-06 12:56:00,72.9,65.3,29.92,NW,315,3.0,11.0,77,0.00,,,0.00,meteohub,2013-03-06 17:56:00,
2013-03-06 13:02:00,72.9,66.0,29.93,NW,315,3.0,11.0,79,0.00,,,0.00,meteohub,2013-03-06 18:02:00,
2013-03-06 13:07:00,73.4,66.2,29.94,SW,225,4.0,10.0,78,0.00,,,0.00,meteohub,2013-03-06 18:07:00,
2013-03-06 13:12:00,73.8,65.7,29.92,NW,315,3.0,9.0,76,0.00,,,0.00,meteohub,2013-03-06 18:12:00,
2013-03-06 13:17:00,73.9,65.8,29.92,NW,315,8.0,9.0,76,0.00,,,0.00,meteohub,2013-03-06 18:17:00,
2013-03-06 13:22:00,74.3,66.6,29.92,West,270,2.0,9.0,77,0.00,,,0.00,meteohub,2013-03-06 18:22:00,
2013-03-06 13:27:00,75.9,67.1,29.91,West,270,8.0,9.0,74,0.00,,,0.00,meteohub,2013-03-06 18:27:00,
2013-03-06 13:32:00,76.1,66.7,29.91,West,270,4.0,9.0,73,0.00,,,0.00,meteohub,2013-03-06 18:32:00,
2013-03-06 13:37:00,76.5,67.6,29.91,NE,45,4.0,10.0,74,0.00,,,0.00,meteohub,2013-03-06 18:37:00,
2013-03-06 13:42:00,77.4,67.3,29.91,West,270,7.0,11.0,71,0.00,,,0.00,meteohub,2013-03-06 18:42:00,
2013-03-06 13:47:00,77.9,66.9,29.90,NW,315,4.0,11.0,69,0.00,,,0.00,meteohub,2013-03-06 18:47:00,
2013-03-06 13:52:00,78.3,66.0,29.89,SW,225,8.0,15.0,66,0.00,,,0.00,meteohub,2013-03-06 18:52:00,
2013-03-06 13:57:00,78.6,65.8,29.89,West,270,7.0,15.0,65,0.00,,,0.00,meteohub,2013-03-06 18:57:00,
2013-03-06 14:02:00,78.6,64.9,29.89,West,270,6.0,15.0,63,0.00,,,0.00,meteohub,2013-03-06 19:02:00,
2013-03-06 14:07:00,78.6,64.9,29.88,West,270,6.0,13.0,63,0.00,,,0.00,meteohub,2013-03-06 19:07:00,
2013-03-06 14:12:00,78.6,64.9,29.88,South,180,4.0,9.0,63,0.00,,,0.00,meteohub,2013-03-06 19:12:00,
2013-03-06 14:17:00,78.8,64.8,29.88,NW,315,8.0,10.0,62,0.00,,,0.00,meteohub,2013-03-06 19:17:00,
2013-03-06 14:22:00,78.8,64.2,29.88,NW,315,5.0,10.0,61,0.00,,,0.00,meteohub,2013-03-06 19:22:00,
2013-03-06 14:27:00,79.3,64.2,29.88,West,270,4.0,12.0,60,0.00,,,0.00,meteohub,2013-03-06 19:27:00,
2013-03-06 14:32:00,79.3,63.3,29.87,NW,315,5.0,12.0,58,0.00,,,0.00,meteohub,2013-03-06 19:32:00,
2013-03-06 14:37:00,79.7,62.1,29.87,SW,225,6.0,12.0,55,0.00,,,0.00,meteohub,2013-03-06 19:37:00,
2013-03-06 14:42:00,79.0,61.9,29.87,West,270,11.0,11.0,56,0.00,,,0.00,meteohub,2013-03-06 19:42:00,
2013-03-06 14:47:00,79.0,62.4,29.86,South,180,2.0,11.0,57,0.00,,,0.00,meteohub,2013-03-06 19:47:00,
2013-03-06 14:53:00,80.1,63.0,29.86,NE,45,4.0,11.0,56,0.00,,,0.00,meteohub,2013-03-06 19:53:00,
2013-03-06 14:58:00,81.1,60.1,29.86,West,270,11.0,11.0,49,0.00,,,0.00,meteohub,2013-03-06 19:58:00,
2013-03-06 15:03:00,81.0,59.4,29.85,SW,225,9.0,11.0,48,0.00,,,0.00,meteohub,2013-03-06 20:03:00,
2013-03-06 15:08:00,81.3,59.7,29.85,North,0,5.0,11.0,48,0.00,,,0.00,meteohub,2013-03-06 20:08:00,
2013-03-06 15:13:00,82.4,60.1,29.85,SE,135,4.0,11.0,47,0.00,,,0.00,meteohub,2013-03-06 20:13:00,
2013-03-06 15:19:00,82.8,58.6,29.85,West,270,6.0,11.0,44,0.00,,,0.00,meteohub,2013-03-06 20:19:00,
2013-03-06 15:24:00,82.2,58.1,29.84,SW,225,5.0,11.0,44,0.00,,,0.00,meteohub,2013-03-06 20:24:00,
2013-03-06 15:29:00,82.6,57.2,29.85,NE,45,3.0,11.0,42,0.00,,,0.00,meteohub,2013-03-06 20:29:00,
2013-03-06 15:34:00,82.6,55.8,29.85,NW,315,7.0,11.0,40,0.00,,,0.00,meteohub,2013-03-06 20:34:00,
2013-03-06 15:39:00,82.2,54.9,29.85,NE,45,4.0,12.0,39,0.00,,,0.00,meteohub,2013-03-06 20:39:00,
2013-03-06 15:44:00,82.2,55.6,29.85,NW,315,4.0,12.0,40,0.00,,,0.00,meteohub,2013-03-06 20:44:00,
2013-03-06 15:49:00,82.4,55.0,29.84,West,270,8.0,12.0,39,0.00,,,0.00,meteohub,2013-03-06 20:49:00,
2013-03-06 15:55:00,82.0,56.7,29.85,NW,315,15.0,15.0,42,0.00,,,0.00,meteohub,2013-03-06 20:55:00,
2013-03-06 16:00:00,82.0,55.9,29.85,West,270,5.0,11.0,41,0.00,,,0.00,meteohub,2013-03-06 21:00:00,
2013-03-06 16:05:00,82.6,55.0,29.85,SW,225,10.0,15.0,39,0.00,,,0.00,meteohub,2013-03-06 21:05:00,
2013-03-06 16:10:00,82.0,54.0,29.84,West,270,16.0,16.0,38,0.00,,,0.00,meteohub,2013-03-06 21:10:00,
2013-03-06 16:15:00,81.0,53.6,29.84,East,90,4.0,16.0,39,0.00,,,0.00,meteohub,2013-03-06 21:15:00,
2013-03-06 16:20:00,81.5,53.4,29.84,South,180,8.0,16.0,38,0.00,,,0.00,meteohub,2013-03-06 21:20:00,
2013-03-06 16:26:00,81.1,53.8,29.84,South,180,11.0,16.0,39,0.00,,,0.00,meteohub,2013-03-06 21:26:00,
2013-03-06 16:31:00,80.6,53.4,29.85,SW,225,4.0,16.0,39,0.00,,,0.00,meteohub,2013-03-06 21:31:00,
2013-03-06 16:36:00,81.1,52.3,29.84,SW,225,4.0,16.0,37,0.00,,,0.00,meteohub,2013-03-06 21:36:00,
2013-03-06 16:41:00,81.3,50.2,29.85,South,180,7.0,16.0,34,0.00,,,0.00,meteohub,2013-03-06 21:41:00,
2013-03-06 16:46:00,81.7,48.9,29.84,ESE,113,12.0,12.0,32,0.00,,,0.00,meteohub,2013-03-06 21:46:00,
2013-03-06 16:51:00,81.3,48.6,29.84,NW,315,5.0,12.0,32,0.00,,,0.00,meteohub,2013-03-06 21:51:00,
2013-03-06 16:56:00,80.6,48.0,29.85,South,180,9.0,13.0,32,0.00,,,0.00,meteohub,2013-03-06 21:56:00,
2013-03-06 17:01:00,80.6,48.0,29.84,NW,315,7.0,14.0,32,0.00,,,0.00,meteohub,2013-03-06 22:01:00,
2013-03-06 17:07:00,80.4,47.8,29.85,West,270,5.0,14.0,32,0.00,,,0.00,meteohub,2013-03-06 22:07:00,
2013-03-06 17:12:00,80.4,46.9,29.85,NW,315,11.0,14.0,31,0.00,,,0.00,meteohub,2013-03-06 22:12:00,
2013-03-06 17:17:00,80.2,46.9,29.85,North,0,5.0,14.0,31,0.00,,,0.00,meteohub,2013-03-06 22:17:00,
2013-03-06 17:22:00,80.2,46.9,29.85,North,0,9.0,11.0,31,0.00,,,0.00,meteohub,2013-03-06 22:22:00,
2013-03-06 17:27:00,79.7,47.3,29.85,SW,225,4.0,11.0,32,0.00,,,0.00,meteohub,2013-03-06 22:27:00,
2013-03-06 17:32:00,78.6,46.2,29.86,SW,225,4.0,11.0,32,0.00,,,0.00,meteohub,2013-03-06 22:32:00,
2013-03-06 17:37:00,78.1,46.6,29.86,NW,315,4.0,12.0,33,0.00,,,0.00,meteohub,2013-03-06 22:37:00,
2013-03-06 17:42:00,77.4,45.1,29.86,SW,225,12.0,13.0,32,0.00,,,0.00,meteohub,2013-03-06 22:42:00,
2013-03-06 17:47:00,75.9,43.9,29.86,SW,225,10.0,13.0,32,0.00,,,0.00,meteohub,2013-03-06 22:47:00,
2013-03-06 17:52:00,75.4,40.1,29.86,NW,315,6.0,13.0,28,0.00,,,0.00,meteohub,2013-03-06 22:52:00,
2013-03-06 17:57:00,74.8,36.7,29.86,SW,225,4.0,13.0,25,0.00,,,0.00,meteohub,2013-03-06 22:57:00,
2013-03-06 18:02:00,74.7,33.3,29.87,West,270,4.0,13.0,22,0.00,,,0.00,meteohub,2013-03-06 23:02:00,
2013-03-06 18:07:00,73.9,33.8,29.88,NW,315,6.0,11.0,23,0.00,,,0.00,meteohub,2013-03-06 23:07:00,
2013-03-06 18:12:00,72.9,35.1,29.88,NW,315,4.0,11.0,25,0.00,,,0.00,meteohub,2013-03-06 23:12:00,
2013-03-06 18:17:00,72.3,35.6,29.88,SW,225,4.0,12.0,26,0.00,,,0.00,meteohub,2013-03-06 23:17:00,
2013-03-06 18:22:00,71.4,35.8,29.88,SW,225,3.0,12.0,27,0.00,,,0.00,meteohub,2013-03-06 23:22:00,
2013-03-06 18:27:00,71.1,36.3,29.88,North,0,4.0,12.0,28,0.00,,,0.00,meteohub,2013-03-06 23:27:00,
2013-03-06 18:33:00,70.7,36.9,29.88,South,180,2.0,14.0,29,0.00,,,0.00,meteohub,2013-03-06 23:33:00,
2013-03-06 18:38:00,70.3,38.3,29.88,NW,315,5.0,14.0,31,0.00,,,0.00,meteohub,2013-03-06 23:38:00,
2013-03-06 18:43:00,70.0,39.6,29.88,NW,315,6.0,14.0,33,0.00,,,0.00,meteohub,2013-03-06 23:43:00,
2013-03-06 18:48:00,69.6,39.9,29.89,East,90,8.0,11.0,34,0.00,,,0.00,meteohub,2013-03-06 23:48:00,
2013-03-06 18:53:00,69.1,40.3,29.89,NW,315,9.0,11.0,35,0.00,,,0.00,meteohub,2013-03-06 23:53:00,
2013-03-06 18:58:00,68.9,40.8,29.89,NW,315,4.0,11.0,36,0.00,,,0.00,meteohub,2013-03-06 23:58:00,
2013-03-06 19:03:00,68.4,41.0,29.91,West,270,7.0,9.0,37,0.00,,,0.00,meteohub,2013-03-07 00:03:00,
2013-03-06 19:08:00,68.2,41.0,29.90,NW,315,10.0,10.0,37,0.00,,,0.00,meteohub,2013-03-07 00:08:00,
2013-03-06 19:13:00,67.8,40.6,29.91,NW,315,7.0,10.0,37,0.00,,,0.00,meteohub,2013-03-07 00:13:00,
2013-03-06 19:19:00,67.3,40.1,29.92,SW,225,5.0,11.0,37,0.00,,,0.00,meteohub,2013-03-07 00:19:00,
2013-03-06 19:24:00,67.1,38.5,29.92,North,0,4.0,11.0,35,0.00,,,0.00,meteohub,2013-03-07 00:24:00,
2013-03-06 19:29:00,66.2,34.7,29.92,North,0,5.0,12.0,31,0.00,,,0.00,meteohub,2013-03-07 00:29:00,
2013-03-06 19:34:00,65.7,31.6,29.92,SW,225,10.0,13.0,28,0.00,,,0.00,meteohub,2013-03-07 00:34:00,
2013-03-06 19:39:00,65.1,30.4,29.93,SW,225,4.0,13.0,27,0.00,,,0.00,meteohub,2013-03-07 00:39:00,
2013-03-06 19:44:00,64.8,30.0,29.93,West,270,2.0,13.0,27,0.00,,,0.00,meteohub,2013-03-07 00:44:00,
2013-03-06 19:49:00,64.4,29.7,29.93,West,270,2.0,11.0,27,0.00,,,0.00,meteohub,2013-03-07 00:49:00,
2013-03-06 19:55:00,64.0,29.3,29.93,NW,315,12.0,15.0,27,0.00,,,0.00,meteohub,2013-03-07 00:55:00,
2013-03-06 20:00:00,63.7,30.0,29.94,West,270,5.0,15.0,28,0.00,,,0.00,meteohub,2013-03-07 01:00:00,
2013-03-06 20:05:00,63.1,31.3,29.93,West,270,4.0,15.0,30,0.00,,,0.00,meteohub,2013-03-07 01:05:00,
2013-03-06 20:10:00,63.0,31.1,29.94,NW,315,7.0,12.0,30,0.00,,,0.00,meteohub,2013-03-07 01:10:00,
2013-03-06 20:15:00,62.6,30.7,29.94,NW,315,10.0,12.0,30,0.00,,,0.00,meteohub,2013-03-07 01:15:00,
2013-03-06 20:20:00,62.2,31.3,29.94,NW,315,2.0,10.0,31,0.00,,,0.00,meteohub,2013-03-07 01:20:00,
2013-03-06 20:25:00,61.9,30.0,29.94,NW,315,4.0,10.0,30,0.00,,,0.00,meteohub,2013-03-07 01:25:00,
2013-03-06 20:30:00,61.5,29.8,29.95,NW,315,8.0,10.0,30,0.00,,,0.00,meteohub,2013-03-07 01:30:00,
2013-03-06 20:35:00,61.3,29.7,29.96,North,0,6.0,9.0,30,0.00,,,0.00,meteohub,2013-03-07 01:35:00,
2013-03-06 20:40:00,61.0,30.2,29.95,NW,315,8.0,9.0,31,0.00,,,0.00,meteohub,2013-03-07 01:40:00,
2013-03-06 20:46:00,60.6,29.8,29.95,West,270,9.0,11.0,31,0.00,,,0.00,meteohub,2013-03-07 01:46:00,
2013-03-06 20:51:00,60.4,29.7,29.95,NW,315,4.0,11.0,31,0.00,,,0.00,meteohub,2013-03-07 01:51:00,
2013-03-06 20:56:00,60.3,30.2,29.95,West,270,2.0,11.0,32,0.00,,,0.00,meteohub,2013-03-07 01:56:00,
2013-03-06 21:01:00,59.9,32.9,29.96,West,270,3.0,9.0,36,0.00,,,0.00,meteohub,2013-03-07 02:01:00,
2013-03-06 21:06:00,59.5,35.2,29.96,West,270,5.0,8.0,40,0.00,,,0.00,meteohub,2013-03-07 02:06:00,
2013-03-06 21:11:00,59.2,36.7,29.96,NW,315,2.0,7.0,43,0.00,,,0.00,meteohub,2013-03-07 02:11:00,
2013-03-06 21:16:00,58.8,38.1,29.96,NW,315,2.0,8.0,46,0.00,,,0.00,meteohub,2013-03-07 02:16:00,
2013-03-06 21:21:00,58.5,38.8,29.96,West,270,2.0,8.0,48,0.00,,,0.00,meteohub,2013-03-07 02:21:00,
2013-03-06 21:27:00,58.1,40.1,29.96,West,270,3.0,8.0,51,0.00,,,0.00,meteohub,2013-03-07 02:27:00,
2013-03-06 21:32:00,57.9,40.5,29.96,South,180,5.0,9.0,52,0.00,,,0.00,meteohub,2013-03-07 02:32:00,
2013-03-06 21:37:00,57.7,40.6,29.97,West,270,5.0,9.0,53,0.00,,,0.00,meteohub,2013-03-07 02:37:00,
2013-03-06 21:42:00,57.6,40.6,29.97,NW,315,4.0,9.0,53,0.00,,,0.00,meteohub,2013-03-07 02:42:00,
2013-03-06 21:47:00,57.2,40.6,29.97,SSW,203,3.0,10.0,54,0.00,,,0.00,meteohub,2013-03-07 02:47:00,
2013-03-06 21:52:00,57.0,40.5,29.97,North,0,5.0,12.0,54,0.00,,,0.00,meteohub,2013-03-07 02:52:00,
2013-03-06 21:57:00,56.8,40.5,29.98,WNW,293,10.0,12.0,54,0.00,,,0.00,meteohub,2013-03-07 02:57:00,
2013-03-06 22:02:00,56.7,40.6,29.98,North,0,8.0,15.0,55,0.00,,,0.00,meteohub,2013-03-07 03:02:00,
2013-03-06 22:07:00,57.0,41.0,29.98,NW,315,9.0,15.0,55,0.00,,,0.00,meteohub,2013-03-07 03:07:00,
2013-03-06 22:12:00,56.3,40.3,29.98,NW,315,4.0,15.0,55,0.00,,,0.00,meteohub,2013-03-07 03:12:00,
2013-03-06 22:17:00,55.9,39.6,29.99,NW,315,4.0,11.0,54,0.00,,,0.00,meteohub,2013-03-07 03:17:00,
2013-03-06 22:22:00,55.8,38.8,29.99,NW,315,2.0,11.0,53,0.00,,,0.00,meteohub,2013-03-07 03:22:00,
2013-03-06 22:27:00,55.4,39.0,29.99,SW,225,7.0,11.0,54,0.00,,,0.00,meteohub,2013-03-07 03:27:00,
2013-03-06 22:32:00,55.2,38.8,29.99,North,0,4.0,14.0,54,0.00,,,0.00,meteohub,2013-03-07 03:32:00,
2013-03-06 22:37:00,55.0,38.7,29.99,North,0,10.0,14.0,54,0.00,,,0.00,meteohub,2013-03-07 03:37:00,
2013-03-06 22:42:00,54.9,39.0,29.99,NW,315,11.0,14.0,55,0.00,,,0.00,meteohub,2013-03-07 03:42:00,
2013-03-06 22:47:00,54.5,38.7,29.99,NW,315,3.0,12.0,55,0.00,,,0.00,meteohub,2013-03-07 03:47:00,
2013-03-06 22:53:00,54.3,39.4,29.99,West,270,10.0,12.0,57,0.00,,,0.00,meteohub,2013-03-07 03:53:00,
2013-03-06 22:58:00,54.0,39.0,29.99,NW,315,7.0,11.0,57,0.00,,,0.00,meteohub,2013-03-07 03:58:00,
2013-03-06 23:03:00,53.8,39.4,29.99,North,0,4.0,11.0,58,0.00,,,0.00,meteohub,2013-03-07 04:03:00,
2013-03-06 23:08:00,53.8,39.4,29.99,NW,315,8.0,11.0,58,0.00,,,0.00,meteohub,2013-03-07 04:08:00,
2013-03-06 23:13:00,53.8,39.4,29.99,NW,315,14.0,14.0,58,0.00,,,0.00,meteohub,2013-03-07 04:13:00,
2013-03-06 23:18:00,53.6,39.6,29.99,North,0,5.0,14.0,59,0.00,,,0.00,meteohub,2013-03-07 04:18:00,
2013-03-06 23:23:00,53.6,39.6,29.99,NW,315,7.0,14.0,59,0.00,,,0.00,meteohub,2013-03-07 04:23:00,
2013-03-06 23:29:00,53.4,39.9,29.99,West,270,6.0,14.0,60,0.00,,,0.00,meteohub,2013-03-07 04:29:00,
2013-03-06 23:34:00,53.1,39.9,29.99,NW,315,8.0,11.0,61,0.00,,,0.00,meteohub,2013-03-07 04:34:00,
2013-03-06 23:39:00,52.9,40.3,29.99,West,270,5.0,11.0,62,0.00,,,0.00,meteohub,2013-03-07 04:39:00,
2013-03-06 23:44:00,52.7,40.1,29.99,NW,315,5.0,11.0,62,0.00,,,0.00,meteohub,2013-03-07 04:44:00,
2013-03-06 23:49:00,52.7,40.5,30.00,NW,315,3.0,11.0,63,0.00,,,0.00,meteohub,2013-03-07 04:49:00,
2013-03-06 23:54:00,52.5,40.6,30.00,SW,225,10.0,11.0,64,0.00,,,0.00,meteohub,2013-03-07 04:54:00,
2013-03-06 23:59:00,52.2,40.8,29.99,North,0,2.0,11.0,65,0.00,,,0.00,meteohub,2013-03-07 04:59:00,